PWSweather.com
Personal Weather Stations
Station Observations
KIDJEROME
Sse Jerome Butte , Jerome, ID 83338

Sse Jerome Butte Jerome, ID 83338

Lat: 42.6981891, Lon: -114.4041362

Elevation: 3960

Station Type: Davis Vantage Pro 2

Latest ConditionsUpdated 9:45:09 AM MDT Sunday, Apr 23, 2017
Currently Today's Max Today's Min Today's Average
Temperature 52.5°F11.4°C 53.4°F11.9°C 42.5°F5.8°C 48.1°F8.9°C
Dew Point 45.5°F7.5°C 45.5°F7.5°C 36.0°F2.2°C 40.9°F4.9°C
Winds 3.0 mph E4.8 kmh E 16.0 mph NE25.7 kmh NE - 4.7 mph 7.6 kmh
Wind Gusts 7.0 mph11.3 kmh 27.0 mph43.5 kmh - -
Humidity 77% 89% 58% 77%
Pressure 29.70 in1005.8 mb 29.79 in1008.8 mb 29.70 in1005.8 mb -
Hour Temp Dew Point Humidity Winds Wind Gusts Pressure Precip Precip Rate Daily Precip Total
09:45 AM 52.5°F11.4°C 45.5°F7.5°C 77% 3.0 mph E4.8 kmh E 7.0 mph11.3 kmh 29.70 in1005.8 mb 0.00 in0.0 mm 0.00 in0.0 mm 0.05 in1.3 mm
09:30 AM 51.4°F10.8°C 44.8°F7.1°C 78% 4.0 mph E6.4 kmh E 11.0 mph17.7 kmh 29.70 in1005.8 mb 0.00 in0.0 mm 0.00 in0.0 mm 0.05 in1.3 mm
09:15 AM 50.1°F10.1°C 45.2°F7.3°C 83% 5.0 mph ENE8.0 kmh ENE 11.0 mph17.7 kmh 29.71 in1006.1 mb 0.00 in0.0 mm 0.00 in0.0 mm 0.05 in1.3 mm
09:00 AM 49.2°F9.6°C 44.6°F7.0°C 84% 7.0 mph ENE11.3 kmh ENE 12.0 mph19.3 kmh 29.72 in1006.4 mb 0.00 in0.0 mm 0.00 in0.0 mm 0.05 in1.3 mm
08:45 AM 48.5°F9.2°C 44.2°F6.8°C 85% 9.0 mph ENE14.5 kmh ENE 12.0 mph19.3 kmh 29.72 in1006.4 mb 0.00 in0.0 mm 0.00 in0.0 mm 0.05 in1.3 mm
08:30 AM 47.9°F8.8°C 43.6°F6.4°C 85% 9.0 mph E14.5 kmh E 11.0 mph17.7 kmh 29.72 in1006.4 mb 0.00 in0.0 mm 0.00 in0.0 mm 0.05 in1.3 mm
08:15 AM 46.8°F8.2°C 42.8°F6.0°C 86% 5.0 mph E8.0 kmh E 10.0 mph16.1 kmh 29.73 in1006.8 mb 0.00 in0.0 mm 0.00 in0.0 mm 0.05 in1.3 mm
08:00 AM 45.1°F7.3°C 41.8°F5.4°C 88% 5.0 mph ENE8.0 kmh ENE 6.0 mph9.7 kmh 29.73 in1006.8 mb 0.00 in0.0 mm 0.00 in0.0 mm 0.05 in1.3 mm
07:45 AM 42.8°F6.0°C 39.5°F4.2°C 88% 3.0 mph ENE4.8 kmh ENE 4.0 mph6.4 kmh 29.73 in1006.8 mb 0.00 in0.0 mm 0.00 in0.0 mm 0.05 in1.3 mm
07:30 AM 43.8°F6.6°C 39.9°F4.4°C 86% 3.0 mph E4.8 kmh E 5.0 mph8.0 kmh 29.73 in1006.8 mb 0.00 in0.0 mm 0.00 in0.0 mm 0.05 in1.3 mm
07:15 AM 42.5°F5.8°C 39.5°F4.2°C 89% 3.0 mph ENE4.8 kmh ENE 5.0 mph8.0 kmh 29.73 in1006.8 mb 0.00 in0.0 mm 0.00 in0.0 mm 0.05 in1.3 mm
07:00 AM 42.6°F5.9°C 39.0°F3.9°C 87% 4.0 mph E6.4 kmh E 11.0 mph17.7 kmh 29.72 in1006.4 mb 0.00 in0.0 mm 0.00 in0.0 mm 0.05 in1.3 mm
06:45 AM 43.2°F6.2°C 39.9°F4.4°C 88% 5.0 mph ENE8.0 kmh ENE 11.0 mph17.7 kmh 29.72 in1006.4 mb 0.00 in0.0 mm 0.00 in0.0 mm 0.05 in1.3 mm
06:30 AM 44.0°F6.7°C 40.1°F4.5°C 86% 6.0 mph ENE9.7 kmh ENE 15.0 mph24.1 kmh 29.71 in1006.1 mb 0.00 in0.0 mm 0.00 in0.0 mm 0.05 in1.3 mm
06:15 AM 44.3°F6.8°C 40.4°F4.7°C 86% 10.0 mph NE16.1 kmh NE 15.0 mph24.1 kmh 29.71 in1006.1 mb 0.00 in0.0 mm 0.00 in0.0 mm 0.05 in1.3 mm
06:00 AM 44.0°F6.7°C 40.4°F4.7°C 87% 7.0 mph NE11.3 kmh NE 19.0 mph30.6 kmh 29.71 in1006.1 mb 0.00 in0.0 mm 0.00 in0.0 mm 0.05 in1.3 mm
05:45 AM 44.9°F7.2°C 41.3°F5.2°C 87% 16.0 mph NE25.7 kmh NE 19.0 mph30.6 kmh 29.71 in1006.1 mb 0.00 in0.0 mm 0.00 in0.0 mm 0.05 in1.3 mm
05:30 AM 45.1°F7.3°C 40.9°F4.9°C 85% 6.0 mph ENE9.7 kmh ENE 10.0 mph16.1 kmh 29.71 in1006.1 mb 0.00 in0.0 mm 0.00 in0.0 mm 0.05 in1.3 mm
05:15 AM 46.0°F7.8°C 40.2°F4.6°C 80% 4.0 mph NE6.4 kmh NE 6.0 mph9.7 kmh 29.74 in1007.1 mb 0.00 in0.0 mm 0.00 in0.0 mm 0.05 in1.3 mm
05:00 AM 46.7°F8.2°C 42.1°F5.6°C 84% 2.0 mph NE3.2 kmh NE 3.0 mph4.8 kmh 29.75 in1007.5 mb 0.02 in0.5 mm 0.00 in0.0 mm 0.05 in1.3 mm
04:45 AM 47.4°F8.6°C 42.8°F6.0°C 84% 2.0 mph N3.2 kmh N 3.0 mph4.8 kmh 29.76 in1007.8 mb 0.02 in0.5 mm 0.00 in0.0 mm 0.05 in1.3 mm
04:30 AM 47.4°F8.6°C 43.7°F6.5°C 87% 2.0 mph WNW3.2 kmh WNW 3.0 mph4.8 kmh 29.77 in1008.1 mb 0.05 in1.3 mm 0.00 in0.0 mm 0.05 in1.3 mm
04:15 AM 47.6°F8.7°C 43.9°F6.6°C 87% Calm Calm 3.0 mph4.8 kmh 29.76 in1007.8 mb 0.05 in1.3 mm 0.00 in0.0 mm 0.05 in1.3 mm
04:00 AM 47.8°F8.8°C 43.8°F6.6°C 86% 3.0 mph WSW4.8 kmh WSW 3.0 mph4.8 kmh 29.77 in1008.1 mb 0.05 in1.3 mm 0.00 in0.0 mm 0.05 in1.3 mm
03:45 AM 48.7°F9.3°C 44.1°F6.7°C 84% 1.0 mph W1.6 kmh W 2.0 mph3.2 kmh 29.76 in1007.8 mb 0.05 in1.3 mm 0.08 in2.0 mm 0.05 in1.3 mm
03:30 AM 49.5°F9.7°C 43.9°F6.6°C 81% 1.0 mph W1.6 kmh W 12.0 mph19.3 kmh 29.77 in1008.1 mb 0.03 in0.8 mm 0.08 in2.0 mm 0.03 in0.8 mm
03:15 AM 49.9°F9.9°C 43.3°F6.3°C 78% 1.0 mph SSW1.6 kmh SSW 12.0 mph19.3 kmh 29.77 in1008.1 mb 0.01 in0.3 mm 0.04 in1.0 mm 0.01 in0.3 mm
03:00 AM 52.1°F11.2°C 44.1°F6.7°C 74% 13.0 mph NW20.9 kmh NW 27.0 mph43.5 kmh 29.78 in1008.5 mb 0.00 in0.0 mm 0.00 in0.0 mm 0.00 in0.0 mm
02:45 AM 53.4°F11.9°C 41.1°F5.1°C 63% Calm Calm 4.0 mph6.4 kmh 29.77 in1008.1 mb 0.00 in0.0 mm 0.00 in0.0 mm 0.00 in0.0 mm
02:30 AM 53.4°F11.9°C 40.3°F4.6°C 61% 4.0 mph S6.4 kmh S 7.0 mph11.3 kmh 29.77 in1008.1 mb 0.00 in0.0 mm 0.00 in0.0 mm 0.00 in0.0 mm
02:15 AM 51.4°F10.8°C 38.4°F3.6°C 61% 1.0 mph SE1.6 kmh SE 7.0 mph11.3 kmh 29.77 in1008.1 mb 0.00 in0.0 mm 0.00 in0.0 mm 0.00 in0.0 mm
02:00 AM 51.0°F10.6°C 37.2°F2.9°C 59% 3.0 mph E4.8 kmh E 9.0 mph14.5 kmh 29.77 in1008.1 mb 0.00 in0.0 mm 0.00 in0.0 mm 0.00 in0.0 mm
01:45 AM 51.2°F10.7°C 38.2°F3.4°C 61% 1.0 mph E1.6 kmh E 6.0 mph9.7 kmh 29.78 in1008.5 mb 0.00 in0.0 mm 0.00 in0.0 mm 0.00 in0.0 mm
01:30 AM 51.1°F10.6°C 36.9°F2.7°C 58% 4.0 mph NE6.4 kmh NE 12.0 mph19.3 kmh 29.76 in1007.8 mb 0.00 in0.0 mm 0.00 in0.0 mm 0.00 in0.0 mm
01:15 AM 50.3°F10.2°C 36.5°F2.5°C 59% 7.0 mph NE11.3 kmh NE 12.0 mph19.3 kmh 29.76 in1007.8 mb 0.00 in0.0 mm 0.00 in0.0 mm 0.00 in0.0 mm
01:00 AM 50.0°F10.0°C 37.1°F2.8°C 61% 8.0 mph ENE12.9 kmh ENE 12.0 mph19.3 kmh 29.76 in1007.8 mb 0.00 in0.0 mm 0.00 in0.0 mm 0.00 in0.0 mm
12:45 AM 49.8°F9.9°C 36.5°F2.5°C 60% 7.0 mph NE11.3 kmh NE 10.0 mph16.1 kmh 29.77 in1008.1 mb 0.00 in0.0 mm 0.00 in0.0 mm 0.00 in0.0 mm
12:30 AM 50.2°F10.1°C 36.4°F2.4°C 59% 3.0 mph E4.8 kmh E 4.0 mph6.4 kmh 29.78 in1008.5 mb 0.00 in0.0 mm 0.00 in0.0 mm 0.00 in0.0 mm
12:15 AM 50.2°F10.1°C 36.0°F2.2°C 58% 5.0 mph ENE8.0 kmh ENE 8.0 mph12.9 kmh 29.79 in1008.8 mb 0.00 in0.0 mm 0.00 in0.0 mm 0.00 in0.0 mm
12:00 AM 49.9°F9.9°C 36.2°F2.3°C 59% 7.0 mph NE11.3 kmh NE 9.0 mph14.5 kmh 29.79 in1008.8 mb 0.00 in0.0 mm 0.00 in0.0 mm 0.00 in0.0 mm